This is the latest recevied weather packets stored in our database for station/object F4GSP-10. If no packets are shown the sender has not sent any weather packets the latest 10 day(s).
| Time | Temp. | Humidity | Pressure | Rain* | Wind** | Luminosity | Snow |
|---|---|---|---|---|---|---|---|
| 1777632637 | 32.22° C | 34% | 1026 hPa | - | - | - | - |
| 1777625437 | 31.11° C | 34% | 1026.4 hPa | - | - | - | - |
| 1777618237 | 31.11° C | 32% | 1025.9 hPa | - | - | - | - |
| 1777611037 | 31.11° C | 31% | 1025.1 hPa | - | - | - | - |
| 1777603836 | 31.11° C | 32% | 1024.5 hPa | - | - | - | - |
| 1777596636 | 31.11° C | 33% | 1024.4 hPa | - | - | - | - |
| 1777582235 | 31.67° C | 32% | 1023.2 hPa | - | - | - | - |
| 1777575035 | 31.67° C | 31% | 1021.8 hPa | - | - | - | - |
| 1777567834 | 32.22° C | 31% | 1020.6 hPa | - | - | - | - |
| 1777553434 | 32.22° C | 31% | 1020.3 hPa | - | - | - | - |
| 1777539033 | 31.11° C | 32% | 1021.4 hPa | - | - | - | - |
| 1777531833 | 31.11° C | 34% | 1021 hPa | - | - | - | - |
| 1777524633 | 31.11° C | 33% | 1020.2 hPa | - | - | - | - |
| 1777517433 | 31.11° C | 36% | 1019.9 hPa | - | - | - | - |
| 1777510232 | 31.11° C | 37% | 1019.6 hPa | - | - | - | - |
| 1777503032 | 31.11° C | 40% | 1019.3 hPa | - | - | - | - |
| 1777495832 | 31.67° C | 39% | 1018.2 hPa | - | - | - | - |
| 1777488632 | 31.67° C | 34% | 1017.2 hPa | - | - | - | - |
| 1777481432 | 31.67° C | 33% | 1016.6 hPa | - | - | - | - |
| 1777474232 | 32.22° C | 32% | 1016.7 hPa | - | - | - | - |
| 1777467031 | 31.67° C | 32% | 1017.5 hPa | - | - | - | - |
| 1777459831 | 31.67° C | 34% | 1018.1 hPa | - | - | - | - |
| 1777445431 | 30.56° C | 35% | 1018.3 hPa | - | - | - | - |
| 1777438230 | 31.11° C | 34% | 1017.8 hPa | - | - | - | - |
| 1777431030 | 31.11° C | 34% | 1017.6 hPa | - | - | - | - |
* Rain since midnight (hover to see other rain measurements)
** Current wind speed in m/s (hover to see current wind gust speed)